Time;durP1;ratioP1;P1;durP2;ratioP2;P2;SDS_P1;SDS_P2;PMS_P1;PMS_P2;Temp;Humidity;BMP_temperature;BMP_pressure;BME280_temperature;BME280_humidity;BME280_pressure;Samples;Min_cycle;Max_cycle;Signal;HPM_P1;HPM_P2
2023/11/15 00:01:37;;;;;;;;;;;;;;;21.19;30.50;97395.56;5055974;28;927;-74
2023/11/15 00:04:03;;;;;;;;;;;;;;;20.78;31.17;97388.06;5041709;28;1025;-75
2023/11/15 00:06:29;;;;;;;;;;;;;;;20.81;30.45;97395.63;5036759;28;1231;-74
2023/11/15 00:08:55;;;;;;;;;;;;;;;20.38;31.20;97387.72;5038153;28;1910;-74
2023/11/15 00:11:21;;;;;;;;;;;;;;;20.32;31.76;97381.03;5020050;28;1142;-74
2023/11/15 00:13:50;;;;;;;;;;;;;;;20.83;30.74;97383.84;5037507;28;918;-74
2023/11/15 00:16:16;;;;;;;;;;;;;;;20.58;31.25;97379.81;5020099;28;1476;-74
2023/11/15 00:18:42;;;;;;;;;;;;;;;20.39;31.34;97378.78;5020010;28;1802;-74
2023/11/15 00:21:08;;;;;;;;;;;;;;;20.50;31.16;97378.47;5036128;28;1003;-75
2023/11/15 00:23:34;;;;;;;;;;;;;;;20.68;31.18;97383.56;5037576;28;940;-76
2023/11/15 00:26:00;;;;;;;;;;;;;;;20.63;30.89;97382.09;5019656;28;1168;-74
2023/11/15 00:28:26;;;;;;;;;;;;;;;20.34;31.64;97375.72;5036602;28;1973;-74
2023/11/15 00:30:52;;;;;;;;;;;;;;;20.52;30.99;97385.25;5058135;28;999;-75
2023/11/15 00:33:18;;;;;;;;;;;;;;;20.46;31.17;97372.91;5041882;28;1099;-75
2023/11/15 00:35:43;;;;;;;;;;;;;;;20.29;31.48;97366.56;5075097;28;998;-75
2023/11/15 00:38:11;;;;;;;;;;;;;;;20.22;31.52;97366.00;5058354;28;962;-75
2023/11/15 00:40:37;;;;;;;;;;;;;;;21.14;30.75;97359.38;5041836;28;1096;-75
2023/11/15 00:43:03;;;;;;;;;;;;;;;21.35;30.44;97352.19;5058274;28;1020;-75
2023/11/15 00:45:29;;;;;;;;;;;;;;;21.30;30.62;97345.06;5058192;28;1011;-75
2023/11/15 00:47:54;;;;;;;;;;;;;;;21.28;30.56;97341.06;5057995;28;1966;-75
2023/11/15 00:50:20;;;;;;;;;;;;;;;20.62;31.49;97332.44;5057905;28;1157;-74
2023/11/15 00:52:46;;;;;;;;;;;;;;;20.56;31.44;97331.41;5057728;28;951;-74
2023/11/15 00:55:12;;;;;;;;;;;;;;;20.45;31.76;97333.78;5057804;28;1208;-76
2023/11/15 00:57:38;;;;;;;;;;;;;;;20.77;30.89;97336.34;5058236;28;1304;-74
2023/11/15 01:00:13;;;;;;;;;;;;;;;20.93;30.84;97331.78;5054256;28;1342;-75
2023/11/15 01:02:46;;;;;;;;;;;;;;;20.85;30.69;97322.00;5037621;28;1324;-74
2023/11/15 01:05:11;;;;;;;;;;;;;;;20.66;31.12;97310.50;5018605;28;981;-74
2023/11/15 01:07:37;;;;;;;;;;;;;;;20.73;31.26;97318.75;5017741;28;1981;-74
2023/11/15 01:10:06;;;;;;;;;;;;;;;20.74;31.10;97311.06;5034081;28;964;-74
2023/11/15 01:12:31;;;;;;;;;;;;;;;20.68;31.21;97304.41;5034202;28;967;-75
2023/11/15 01:14:57;;;;;;;;;;;;;;;20.59;31.53;97296.59;5017880;28;1204;-75
2023/11/15 01:17:25;;;;;;;;;;;;;;;20.32;31.75;97299.91;5017171;28;967;-74
2023/11/15 01:19:51;;;;;;;;;;;;;;;20.59;31.52;97293.78;5017771;28;1071;-75
2023/11/15 01:22:16;;;;;;;;;;;;;;;21.21;31.00;97291.22;5017736;28;1131;-74
2023/11/15 01:24:42;;;;;;;;;;;;;;;21.43;30.61;97284.78;5034275;28;1110;-75
2023/11/15 01:27:07;;;;;;;;;;;;;;;21.13;30.86;97278.56;5017647;28;1910;-75
2023/11/15 01:29:33;;;;;;;;;;;;;;;20.73;31.28;97273.50;5033997;28;985;-75
2023/11/15 01:31:58;;;;;;;;;;;;;;;20.19;32.38;97280.13;5020990;28;1126;-75
2023/11/15 01:34:24;;;;;;;;;;;;;;;20.63;31.55;97269.03;5037630;28;1094;-75
2023/11/15 01:36:49;;;;;;;;;;;;;;;20.54;31.63;97271.75;5037284;28;1213;-74
2023/11/15 01:39:19;;;;;;;;;;;;;;;20.56;31.39;97269.25;5038715;28;1146;-74
2023/11/15 01:41:48;;;;;;;;;;;;;;;20.65;31.20;97275.00;5034079;28;1535;-74
2023/11/15 01:44:15;;;;;;;;;;;;;;;20.71;31.47;97276.00;5034158;28;963;-75
2023/11/15 01:46:41;;;;;;;;;;;;;;;20.55;31.43;97290.28;5033883;28;1257;-75
2023/11/15 01:49:06;;;;;;;;;;;;;;;20.66;31.45;97289.91;5034158;28;1977;-75
2023/11/15 01:51:32;;;;;;;;;;;;;;;20.42;31.90;97300.78;5033780;28;999;-75
2023/11/15 01:53:57;;;;;;;;;;;;;;;20.60;31.64;97286.88;5033860;28;1258;-74
2023/11/15 01:56:23;;;;;;;;;;;;;;;20.61;31.39;97288.44;5034126;28;1069;-75
2023/11/15 01:58:50;;;;;;;;;;;;;;;20.43;31.57;97282.59;4994248;28;1246;-75
2023/11/15 02:01:16;;;;;;;;;;;;;;;20.59;31.18;97276.81;4994670;28;1032;-75
2023/11/15 02:03:42;;;;;;;;;;;;;;;21.24;30.99;97272.50;4994140;28;1647;-75
2023/11/15 02:06:08;;;;;;;;;;;;;;;21.44;30.69;97264.50;4994617;28;998;-74
2023/11/15 02:08:34;;;;;;;;;;;;;;;21.49;30.45;97260.28;4994314;28;1984;-74
2023/11/15 02:10:59;;;;;;;;;;;;;;;21.06;31.16;97273.16;4997876;28;1015;-75
2023/11/15 02:13:25;;;;;;;;;;;;;;;20.85;31.39;97268.28;4997718;28;980;-74
2023/11/15 02:15:52;;;;;;;;;;;;;;;20.60;31.77;97258.63;4997910;28;1030;-75
2023/11/15 02:18:19;;;;;;;;;;;;;;;20.73;31.37;97256.56;4965560;28;1072;-74
2023/11/15 02:20:46;;;;;;;;;;;;;;;20.53;31.44;97270.16;4965534;28;1130;-75
2023/11/15 02:23:11;;;;;;;;;;;;;;;20.53;31.56;97258.88;4997997;28;1016;-75
2023/11/15 02:25:38;;;;;;;;;;;;;;;20.27;31.94;97258.88;4975005;28;1226;-74
2023/11/15 02:28:05;;;;;;;;;;;;;;;20.51;31.27;97264.16;4977353;28;1902;-74
2023/11/15 02:30:30;;;;;;;;;;;;;;;20.67;31.11;97269.66;4993895;28;2005;-75
2023/11/15 02:32:56;;;;;;;;;;;;;;;20.36;31.71;97272.28;4981377;28;1004;-74
2023/11/15 02:35:22;;;;;;;;;;;;;;;20.49;31.42;97261.00;4997827;28;1433;-75
2023/11/15 02:37:48;;;;;;;;;;;;;;;20.55;31.41;97250.72;4981558;28;1238;-75
2023/11/15 02:40:13;;;;;;;;;;;;;;;20.62;31.21;97256.09;4998135;28;1080;-75
2023/11/15 02:42:39;;;;;;;;;;;;;;;20.43;31.39;97248.69;4997737;28;1104;-75
2023/11/15 02:45:05;;;;;;;;;;;;;;;20.73;30.91;97245.25;4981659;28;1006;-75
2023/11/15 02:47:30;;;;;;;;;;;;;;;20.44;31.32;97238.97;4997493;28;1910;-74
2023/11/15 02:49:56;;;;;;;;;;;;;;;20.15;31.89;97239.88;4997528;28;1244;-75
2023/11/15 02:52:21;;;;;;;;;;;;;;;20.54;31.25;97251.97;4997595;28;1115;-74
2023/11/15 02:54:47;;;;;;;;;;;;;;;20.39;31.30;97245.19;4997929;28;1016;-74
2023/11/15 02:57:13;;;;;;;;;;;;;;;20.33;31.48;97249.84;5012386;28;1140;-75
2023/11/15 02:59:38;;;;;;;;;;;;;;;21.01;30.88;97236.97;5000430;28;1032;-75
2023/11/15 03:02:04;;;;;;;;;;;;;;;21.34;30.66;97243.06;4997273;28;1129;-75
2023/11/15 03:04:29;;;;;;;;;;;;;;;21.43;30.82;97239.50;4997173;28;1249;-74
2023/11/15 03:06:55;;;;;;;;;;;;;;;21.30;30.79;97237.56;4998608;28;1902;-76
2023/11/15 03:09:20;;;;;;;;;;;;;;;20.74;31.88;97231.91;5000604;28;1491;-75
2023/11/15 03:11:46;;;;;;;;;;;;;;;20.54;31.66;97232.97;5017407;28;1072;-75
2023/11/15 03:14:11;;;;;;;;;;;;;;;20.71;31.29;97239.25;5000197;28;1305;-75
2023/11/15 03:16:37;;;;;;;;;;;;;;;20.84;31.09;97227.13;5000392;28;1247;-74
2023/11/15 03:19:04;;;;;;;;;;;;;;;20.47;31.78;97215.47;5016848;28;1297;-75
2023/11/15 03:21:29;;;;;;;;;;;;;;;20.43;31.70;97217.59;5000035;28;976;-75
2023/11/15 03:23:55;;;;;;;;;;;;;;;20.33;31.96;97213.09;5000363;28;1096;-75
2023/11/15 03:26:20;;;;;;;;;;;;;;;20.54;31.75;97206.75;5000142;28;1134;-75
2023/11/15 03:28:46;;;;;;;;;;;;;;;20.59;31.38;97211.81;5016592;28;1922;-74
2023/11/15 03:31:12;;;;;;;;;;;;;;;20.61;31.70;97214.97;5016436;28;1310;-75
2023/11/15 03:33:43;;;;;;;;;;;;;;;20.46;31.62;97202.53;4988775;28;1192;-74
2023/11/15 03:36:09;;;;;;;;;;;;;;;20.55;31.36;97197.81;5016162;28;982;-74
2023/11/15 03:38:34;;;;;;;;;;;;;;;20.61;31.20;97178.22;5044228;28;876;-75
2023/11/15 03:41:00;;;;;;;;;;;;;;;20.50;31.55;97187.06;5075943;28;1216;-74
2023/11/15 03:43:26;;;;;;;;;;;;;;;20.44;31.34;97188.09;5059280;28;1224;-74
2023/11/15 03:45:54;;;;;;;;;;;;;;;20.75;30.97;97191.84;5059226;28;1109;-74
2023/11/15 03:48:20;;;;;;;;;;;;;;;20.62;30.93;97198.78;5059269;28;1983;-75
2023/11/15 03:50:45;;;;;;;;;;;;;;;21.43;30.81;97200.66;5059528;28;1250;-74
2023/11/15 03:53:11;;;;;;;;;;;;;;;21.25;30.92;97195.66;5059486;28;1166;-75
2023/11/15 03:55:37;;;;;;;;;;;;;;;21.47;30.61;97189.22;5059032;28;1082;-74
2023/11/15 03:58:02;;;;;;;;;;;;;;;21.28;30.73;97194.72;5038680;28;1693;-75
2023/11/15 04:00:28;;;;;;;;;;;;;;;20.78;31.33;97185.28;5055570;28;920;-75
2023/11/15 04:02:54;;;;;;;;;;;;;;;20.43;32.11;97180.88;5055131;28;1549;-75
2023/11/15 04:05:19;;;;;;;;;;;;;;;20.56;31.68;97195.75;5038349;28;1556;-75
2023/11/15 04:07:45;;;;;;;;;;;;;;;20.56;31.44;97195.75;5038409;28;1973;-74
2023/11/15 04:10:10;;;;;;;;;;;;;;;20.44;31.76;97194.53;5018560;28;1496;-74
2023/11/15 04:12:37;;;;;;;;;;;;;;;20.52;31.52;97189.44;5038904;28;1608;-75
2023/11/15 04:15:03;;;;;;;;;;;;;;;20.61;31.51;97192.34;5002105;28;1860;-75
2023/11/15 04:17:30;;;;;;;;;;;;;;;20.34;31.68;97189.25;5035202;28;1608;-75
2023/11/15 04:19:55;;;;;;;;;;;;;;;20.56;31.53;97207.06;5018349;28;1522;-74
2023/11/15 04:22:21;;;;;;;;;;;;;;;20.37;31.72;97210.97;5018484;28;1309;-75
2023/11/15 04:24:47;;;;;;;;;;;;;;;20.64;31.12;97211.22;5018342;28;1497;-75
2023/11/15 04:27:13;;;;;;;;;;;;;;;20.65;31.27;97220.50;5018245;28;1906;-75
2023/11/15 04:29:39;;;;;;;;;;;;;;;20.59;31.02;97211.81;5001398;28;1640;-75
2023/11/15 04:32:05;;;;;;;;;;;;;;;20.55;31.40;97208.31;5034579;28;1616;-75
2023/11/15 04:34:31;;;;;;;;;;;;;;;20.81;31.30;97195.66;5034772;28;1493;-75
2023/11/15 04:36:57;;;;;;;;;;;;;;;21.32;30.67;97188.97;5035945;28;1500;-76
2023/11/15 04:39:24;;;;;;;;;;;;;;;21.37;30.93;97184.75;5036378;28;1485;-76
2023/11/15 04:41:50;;;;;;;;;;;;;;;21.32;30.92;97172.78;5037170;28;889;-76
2023/11/15 04:44:15;;;;;;;;;;;;;;;21.01;31.11;97166.28;5037171;28;982;-76
2023/11/15 04:46:41;;;;;;;;;;;;;;;20.80;31.23;97165.81;5035806;28;1579;-76
2023/11/15 04:49:07;;;;;;;;;;;;;;;20.81;31.09;97161.72;5019218;28;1910;-76
2023/11/15 04:51:32;;;;;;;;;;;;;;;20.45;31.90;97167.06;5035184;28;894;-75
2023/11/15 04:53:58;;;;;;;;;;;;;;;20.51;31.63;97153.94;5037000;28;1129;-75
2023/11/15 04:56:24;;;;;;;;;;;;;;;20.56;31.29;97164.66;5037027;28;960;-76
2023/11/15 04:58:50;;;;;;;;;;;;;;;20.47;31.82;97156.13;5036001;28;945;-76
2023/11/15 05:01:16;;;;;;;;;;;;;;;20.35;31.67;97154.09;5035655;28;916;-75
2023/11/15 05:03:41;;;;;;;;;;;;;;;21.09;30.97;97156.28;5019150;28;1175;-75
2023/11/15 05:06:07;;;;;;;;;;;;;;;21.51;30.51;97151.03;5035746;28;957;-76
2023/11/15 05:08:33;;;;;;;;;;;;;;;21.46;30.76;97142.38;5035290;28;1988;-75
2023/11/15 05:10:59;;;;;;;;;;;;;;;20.91;31.53;97148.44;5035498;28;1035;-75
2023/11/15 05:13:24;;;;;;;;;;;;;;;20.79;31.28;97147.28;5019058;28;984;-76
2023/11/15 05:15:50;;;;;;;;;;;;;;;20.84;31.09;97147.94;5019352;28;878;-76
2023/11/15 05:18:15;;;;;;;;;;;;;;;20.92;31.00;97146.41;5018845;28;967;-75
2023/11/15 05:20:41;;;;;;;;;;;;;;;20.81;31.11;97139.13;5035415;28;1225;-75
2023/11/15 05:23:07;;;;;;;;;;;;;;;20.65;31.56;97135.69;5036258;28;968;-75
2023/11/15 05:25:32;;;;;;;;;;;;;;;20.33;32.08;97134.00;5036544;28;1088;-75
2023/11/15 05:27:58;;;;;;;;;;;;;;;20.48;31.62;97130.25;5036498;28;1977;-75
2023/11/15 05:30:23;;;;;;;;;;;;;;;20.67;31.34;97133.19;5035959;28;1096;-75
2023/11/15 05:32:49;;;;;;;;;;;;;;;20.54;31.73;97125.56;5035439;28;1241;-75
2023/11/15 05:35:15;;;;;;;;;;;;;;;20.49;31.42;97116.91;5019003;28;1209;-76
2023/11/15 05:37:40;;;;;;;;;;;;;;;20.47;31.74;97130.72;5019000;28;1130;-75
2023/11/15 05:40:06;;;;;;;;;;;;;;;20.61;31.37;97113.22;5035261;28;1004;-76
2023/11/15 05:42:32;;;;;;;;;;;;;;;20.46;31.63;97117.78;5036184;28;983;-75
2023/11/15 05:44:57;;;;;;;;;;;;;;;21.07;30.74;97136.94;5034193;28;1405;-75
2023/11/15 05:47:25;;;;;;;;;;;;;;;21.67;30.34;97118.84;5035017;28;1964;-75
2023/11/15 05:49:51;;;;;;;;;;;;;;;21.63;30.67;97118.19;5034078;28;1044;-75
2023/11/15 05:52:17;;;;;;;;;;;;;;;21.40;30.64;97121.56;5035199;28;1174;-74
2023/11/15 05:54:44;;;;;;;;;;;;;;;20.86;31.39;97117.16;5018493;28;1199;-75
2023/11/15 05:57:11;;;;;;;;;;;;;;;20.55;32.09;97117.88;5035347;28;1117;-76
2023/11/15 05:59:37;;;;;;;;;;;;;;;20.74;31.65;97111.13;5019142;28;1002;-75
2023/11/15 06:02:03;;;;;;;;;;;;;;;20.65;31.50;97115.91;5036115;28;1029;-75
2023/11/15 06:04:28;;;;;;;;;;;;;;;20.42;31.95;97105.84;5038919;28;1107;-75
2023/11/15 06:06:54;;;;;;;;;;;;;;;20.42;32.15;97105.84;5022406;28;1003;-75
2023/11/15 06:09:21;;;;;;;;;;;;;;;20.43;31.92;97096.88;5038913;28;1995;-75
2023/11/15 06:11:46;;;;;;;;;;;;;;;20.45;31.90;97094.38;5038624;28;944;-75
2023/11/15 06:14:14;;;;;;;;;;;;;;;20.46;31.76;97101.63;5039261;28;883;-76
2023/11/15 06:16:40;;;;;;;;;;;;;;;20.61;31.65;97096.25;5038799;28;1333;-75
2023/11/15 06:19:08;;;;;;;;;;;;;;;20.39;31.80;97086.97;5038526;28;1001;-75
2023/11/15 06:21:34;;;;;;;;;;;;;;;20.51;31.64;97086.13;5022501;28;1251;-76
2023/11/15 06:24:00;;;;;;;;;;;;;;;20.78;31.41;97103.31;5040180;28;930;-75
2023/11/15 06:26:25;;;;;;;;;;;;;;;20.74;31.08;97094.16;5021199;28;1087;-76
2023/11/15 06:28:51;;;;;;;;;;;;;;;20.58;31.51;97088.72;5038545;28;1985;-75
2023/11/15 06:31:19;;;;;;;;;;;;;;;20.41;31.43;97093.72;5020416;28;986;-75
2023/11/15 06:33:44;;;;;;;;;;;;;;;20.36;31.35;97080.19;5004173;28;947;-75
2023/11/15 06:36:10;;;;;;;;;;;;;;;20.55;30.93;97067.00;5020703;28;1221;-76
2023/11/15 06:38:35;;;;;;;;;;;;;;;20.46;31.07;97061.25;5017334;28;1087;-76
2023/11/15 06:41:01;;;;;;;;;;;;;;;20.79;31.33;97062.47;5001081;28;1010;-75
2023/11/15 06:43:27;;;;;;;;;;;;;;;21.24;30.84;97058.28;4984817;28;1056;-75
2023/11/15 06:45:52;;;;;;;;;;;;;;;21.53;30.25;97060.78;5017320;28;915;-75
2023/11/15 06:48:18;;;;;;;;;;;;;;;21.24;30.51;97058.28;4984707;28;1968;-76
2023/11/15 06:50:44;;;;;;;;;;;;;;;20.81;31.08;97059.94;5017012;28;1029;-75
2023/11/15 06:53:11;;;;;;;;;;;;;;;20.53;31.33;97052.56;4984519;28;1220;-75
2023/11/15 06:55:37;;;;;;;;;;;;;;;20.62;31.10;97052.59;4985076;28;1184;-75
2023/11/15 06:58:02;;;;;;;;;;;;;;;20.60;30.96;97043.03;4984290;28;1016;-76
2023/11/15 07:00:28;;;;;;;;;;;;;;;20.63;30.83;97054.19;4961972;28;1132;-76
2023/11/15 07:02:53;;;;;;;;;;;;;;;20.67;30.64;97046.34;4961806;28;1257;-76
2023/11/15 07:05:19;;;;;;;;;;;;;;;20.88;30.21;97039.13;4977673;28;994;-76
2023/11/15 07:07:44;;;;;;;;;;;;;;;20.46;30.88;97033.81;4978198;28;1907;-75
2023/11/15 07:10:10;;;;;;;;;;;;;;;21.06;30.66;97038.41;4977448;28;1105;-75
2023/11/15 07:12:36;;;;;;;;;;;;;;;21.33;29.82;97047.03;4978149;28;940;-76
2023/11/15 07:15:07;;;;;;;;;;;;;;;21.38;29.56;97059.00;4978370;28;1270;-76
2023/11/15 07:17:32;;;;;;;;;;;;;;;21.33;29.72;97055.50;4981457;28;1034;-76
2023/11/15 07:19:58;;;;;;;;;;;;;;;20.79;30.49;97045.50;4980676;28;1021;-75
2023/11/15 07:22:24;;;;;;;;;;;;;;;20.48;30.59;97042.63;4981070;28;975;-76
2023/11/15 07:24:51;;;;;;;;;;;;;;;20.51;30.35;97046.56;4980712;28;934;-76
2023/11/15 07:27:17;;;;;;;;;;;;;;;20.52;30.55;97037.66;4996805;28;1906;-76
2023/11/15 07:29:45;;;;;;;;;;;;;;;20.51;30.35;97035.25;4980947;28;1081;-75
2023/11/15 07:32:11;;;;;;;;;;;;;;;20.41;30.58;97036.41;5000556;28;1230;-76
2023/11/15 07:34:39;;;;;;;;;;;;;;;20.43;30.20;97017.00;5037329;28;940;-75
2023/11/15 07:37:04;;;;;;;;;;;;;;;20.27;30.45;97020.81;5037343;28;980;-76
2023/11/15 07:39:30;;;;;;;;;;;;;;;20.74;30.15;97020.66;5037080;28;996;-75
2023/11/15 07:41:57;;;;;;;;;;;;;;;21.04;29.61;97023.94;5036124;28;996;-75
2023/11/15 07:44:25;;;;;;;;;;;;;;;21.07;29.79;97014.53;5036938;28;906;-75
2023/11/15 07:46:51;;;;;;;;;;;;;;;21.04;29.50;97021.91;5037195;28;1044;-76
2023/11/15 07:49:20;;;;;;;;;;;;;;;20.79;29.89;97017.22;5036938;28;1918;-75
2023/11/15 07:51:46;;;;;;;;;;;;;;;20.69;29.94;97012.78;4999832;28;972;-75
2023/11/15 07:54:12;;;;;;;;;;;;;;;20.27;30.40;97015.94;4999440;28;1060;-76
2023/11/15 07:56:37;;;;;;;;;;;;;;;20.67;29.88;97018.09;4999737;28;1182;-75
2023/11/15 07:59:04;;;;;;;;;;;;;;;20.33;30.35;96999.19;5016031;28;1003;-75
2023/11/15 08:01:29;;;;;;;;;;;;;;;20.60;29.70;97001.41;5015833;28;978;-76
2023/11/15 08:03:55;;;;;;;;;;;;;;;20.59;29.70;97002.66;5015985;28;1692;-76
2023/11/15 08:06:21;;;;;;;;;;;;;;;20.97;29.37;96999.56;5015888;28;1017;-76
2023/11/15 08:08:47;;;;;;;;;;;;;;;21.36;28.76;96999.25;5015690;28;1910;-76
2023/11/15 08:11:13;;;;;;;;;;;;;;;21.18;29.44;97000.72;4999525;28;1268;-75
2023/11/15 08:13:39;;;;;;;;;;;;;;;21.10;29.34;97002.28;5015962;28;1557;-76
2023/11/15 08:16:09;;;;;;;;;;;;;;;20.37;30.18;97013.19;5015402;28;987;-75
2023/11/15 08:18:34;;;;;;;;;;;;;;;20.73;29.71;97018.31;4999815;28;982;-76
2023/11/15 08:21:01;;;;;;;;;;;;;;;20.90;29.44;97018.84;5015941;28;952;-75
2023/11/15 08:23:28;;;;;;;;;;;;;;;20.64;29.68;97021.84;5027892;28;968;-75
2023/11/15 08:25:53;;;;;;;;;;;;;;;20.62;29.90;97026.38;5036457;28;929;-76
2023/11/15 08:28:20;;;;;;;;;;;;;;;20.60;29.59;97026.84;5036465;28;1921;-76
2023/11/15 08:30:47;;;;;;;;;;;;;;;20.60;29.94;97026.84;5036068;28;1330;-75
2023/11/15 08:33:16;;;;;;;;;;;;;;;20.35;30.11;97026.97;5037170;28;852;-75
2023/11/15 08:35:43;;;;;;;;;;;;;;;20.93;29.68;97003.78;5035597;28;923;-75
2023/11/15 08:38:08;;;;;;;;;;;;;;;21.20;29.00;97001.06;5037174;28;955;-76
2023/11/15 08:40:34;;;;;;;;;;;;;;;21.43;28.60;97010.28;5036200;28;992;-75
2023/11/15 08:43:00;;;;;;;;;;;;;;;21.12;28.79;97010.31;5036648;28;900;-75
2023/11/15 08:45:25;;;;;;;;;;;;;;;20.70;29.47;97003.03;5035586;28;959;-75
2023/11/15 08:47:51;;;;;;;;;;;;;;;20.55;29.67;97002.00;5035498;28;1985;-76
2023/11/15 08:50:18;;;;;;;;;;;;;;;20.34;29.95;97003.56;5035393;28;1095;-75
2023/11/15 08:52:44;;;;;;;;;;;;;;;20.04;30.71;96999.44;5019535;28;979;-75
2023/11/15 08:55:11;;;;;;;;;;;;;;;20.79;29.69;97008.75;5036769;28;984;-75
2023/11/15 08:57:37;;;;;;;;;;;;;;;21.33;28.51;96993.25;5035799;28;891;-76
2023/11/15 09:00:03;;;;;;;;;;;;;;;21.44;28.30;96989.19;5035783;28;947;-75
2023/11/15 09:02:30;;;;;;;;;;;;;;;21.02;29.05;96993.28;5036511;28;951;-75
2023/11/15 09:04:57;;;;;;;;;;;;;;;20.83;29.06;96999.31;5017476;28;1269;-76
2023/11/15 09:07:22;;;;;;;;;;;;;;;20.56;29.62;96989.44;5018455;28;1902;-76
2023/11/15 09:09:48;;;;;;;;;;;;;;;20.76;29.37;96984.22;5017807;28;972;-75
2023/11/15 09:12:15;;;;;;;;;;;;;;;20.66;29.33;96985.44;5034205;28;953;-75
2023/11/15 09:14:41;;;;;;;;;;;;;;;20.24;30.05;96985.78;5033671;28;1096;-75
2023/11/15 09:17:12;;;;;;;;;;;;;;;21.04;29.28;96982.31;5017409;28;1258;-75
2023/11/15 09:19:40;;;;;;;;;;;;;;;21.20;28.97;96980.47;5018293;28;1029;-75
2023/11/15 09:22:06;;;;;;;;;;;;;;;21.28;28.87;96978.91;5017816;28;1006;-76
2023/11/15 09:24:33;;;;;;;;;;;;;;;21.01;29.13;96976.78;5017431;28;1242;-75
2023/11/15 09:27:00;;;;;;;;;;;;;;;20.78;29.39;96970.44;5017946;28;1072;-76
2023/11/15 09:29:27;;;;;;;;;;;;;;;20.60;29.42;96958.25;5017271;28;1975;-76
2023/11/15 09:31:54;;;;;;;;;;;;;;;20.33;29.88;96970.16;5017873;28;971;-75
2023/11/15 09:34:20;;;;;;;;;;;;;;;20.42;29.86;96961.72;5034030;28;952;-76
2023/11/15 09:36:47;;;;;;;;;;;;;;;20.38;29.81;96952.59;5020087;28;991;-75
2023/11/15 09:39:16;;;;;;;;;;;;;;;20.25;29.98;96959.09;5054194;28;1003;-76
2023/11/15 09:41:47;;;;;;;;;;;;;;;20.95;29.33;96961.69;5021030;28;980;-76
2023/11/15 09:44:18;;;;;;;;;;;;;;;21.12;29.03;96950.91;5037139;28;991;-76
2023/11/15 09:46:45;;;;;;;;;;;;;;;21.23;28.81;96954.84;5035749;28;1215;-75
2023/11/15 09:49:13;;;;;;;;;;;;;;;21.03;29.10;96960.91;5018635;28;2044;-75
2023/11/15 09:51:40;;;;;;;;;;;;;;;20.68;29.40;96960.31;5034568;28;1377;-75
2023/11/15 09:54:06;;;;;;;;;;;;;;;20.99;29.13;96968.78;5034724;28;1358;-76
2023/11/15 09:56:35;;;;;;;;;;;;;;;20.83;29.26;96969.03;5033617;28;931;-75
2023/11/15 09:59:00;;;;;;;;;;;;;;;20.53;29.70;96970.63;5033546;28;1084;-75
2023/11/15 10:01:28;;;;;;;;;;;;;;;20.18;30.39;96976.31;5033320;28;959;-75
2023/11/15 10:03:54;;;;;;;;;;;;;;;20.25;30.23;96975.25;5017552;28;1065;-75
2023/11/15 10:06:20;;;;;;;;;;;;;;;21.03;28.99;96975.06;5033720;28;945;-76
2023/11/15 10:08:51;;;;;;;;;;;;;;;21.19;29.07;96968.38;5033431;28;1906;-75
2023/11/15 10:11:16;;;;;;;;;;;;;;;21.37;28.63;96964.81;5017587;28;987;-75
2023/11/15 10:13:42;;;;;;;;;;;;;;;20.85;29.34;96968.56;5000387;28;1345;-75
2023/11/15 10:16:30;;;;;;;;;;;;;;;20.86;29.54;96953.16;5011471;28;2078;-75
2023/11/15 10:18:56;;;;;;;;;;;;;;;20.54;29.86;96949.56;4997717;28;1017;-75
2023/11/15 10:21:22;;;;;;;;;;;;;;;20.43;30.12;96954.81;4997615;28;1344;-75
2023/11/15 10:23:48;;;;;;;;;;;;;;;20.42;29.91;96950.44;5013603;28;1180;-75
2023/11/15 10:26:14;;;;;;;;;;;;;;;20.65;29.83;96941.47;4997650;28;1037;-75
2023/11/15 10:28:39;;;;;;;;;;;;;;;20.45;29.80;96953.09;4997154;28;1979;-75
2023/11/15 10:31:06;;;;;;;;;;;;;;;20.71;29.70;96944.47;5014052;28;939;-75
2023/11/15 10:33:37;;;;;;;;;;;;;;;21.19;28.81;96947.75;5014590;28;948;-75
2023/11/15 10:36:14;;;;;;;;;;;;;;;21.43;28.78;96945.19;5015568;28;940;-75
2023/11/15 10:38:43;;;;;;;;;;;;;;;21.47;28.31;96945.81;5014752;28;924;-75
2023/11/15 10:41:09;;;;;;;;;;;;;;;20.64;29.62;96942.72;4978063;28;974;-76
2023/11/15 10:43:34;;;;;;;;;;;;;;;20.48;29.92;96951.44;4977630;28;1097;-75
2023/11/15 10:46:00;;;;;;;;;;;;;;;20.46;30.03;96953.88;4977877;28;1141;-75
2023/11/15 10:48:25;;;;;;;;;;;;;;;20.30;30.09;96958.50;4978795;28;1915;-76
2023/11/15 10:50:53;;;;;;;;;;;;;;;20.48;30.04;96951.44;4980808;28;983;-75
2023/11/15 10:53:19;;;;;;;;;;;;;;;20.57;29.83;96942.19;4981033;28;1008;-75
2023/11/15 10:55:45;;;;;;;;;;;;;;;20.77;29.39;96951.09;4981246;28;970;-76
2023/11/15 10:58:11;;;;;;;;;;;;;;;20.54;29.60;96955.22;4949140;28;1113;-75
2023/11/15 11:00:37;;;;;;;;;;;;;;;20.58;29.57;96961.53;4964894;28;1133;-75
2023/11/15 11:03:05;;;;;;;;;;;;;;;21.12;29.26;96953.72;4981131;28;1609;-75
2023/11/15 11:05:40;;;;;;;;;;;;;;;21.37;28.73;96953.50;4981193;28;1104;-75
2023/11/15 11:08:26;;;;;;;;;;;;;;;21.41;28.68;96944.88;4996781;28;1967;-75
2023/11/15 11:11:14;;;;;;;;;;;;;;;21.27;28.79;96960.38;4996941;28;1222;-75
2023/11/15 11:13:40;;;;;;;;;;;;;;;20.60;29.71;96956.19;5017521;28;996;-75
2023/11/15 11:16:24;;;;;;;;;;;;;;;20.88;29.15;96961.97;5017890;28;977;-75
2023/11/15 11:19:08;;;;;;;;;;;;;;;20.90;29.20;96965.13;5018958;28;947;-75
2023/11/15 11:21:53;;;;;;;;;;;;;;;20.73;29.31;96962.56;5017475;28;885;-75
2023/11/15 11:24:18;;;;;;;;;;;;;;;20.64;29.52;96959.69;5033652;28;949;-75
2023/11/15 11:26:45;;;;;;;;;;;;;;;20.71;29.25;96964.25;5018583;28;1059;-75
2023/11/15 11:29:11;;;;;;;;;;;;;;;20.56;29.62;96972.50;5017609;28;1906;-76
2023/11/15 11:31:37;;;;;;;;;;;;;;;20.39;29.85;96976.78;5001351;28;1288;-75
2023/11/15 11:34:09;;;;;;;;;;;;;;;20.44;30.01;96964.88;5017128;28;970;-75
2023/11/15 11:36:53;;;;;;;;;;;;;;;21.16;29.16;96979.84;5017342;28;1025;-75
2023/11/15 11:39:23;;;;;;;;;;;;;;;21.36;28.95;96985.13;5017327;28;961;-75
2023/11/15 11:41:49;;;;;;;;;;;;;;;21.20;29.08;96984.09;5017497;28;990;-75
2023/11/15 11:44:18;;;;;;;;;;;;;;;21.20;28.96;96988.97;5017149;28;938;-75
2023/11/15 11:46:43;;;;;;;;;;;;;;;21.00;29.30;96992.19;5017122;28;1237;-75
2023/11/15 11:49:09;;;;;;;;;;;;;;;20.70;30.02;97003.03;5017213;28;1961;-75
2023/11/15 11:51:35;;;;;;;;;;;;;;;20.45;30.11;97008.81;5016692;28;1059;-75
2023/11/15 11:54:00;;;;;;;;;;;;;;;20.64;29.97;96999.25;5018140;28;1108;-75
2023/11/15 11:56:26;;;;;;;;;;;;;;;20.55;30.10;97018.97;5017020;28;931;-75
2023/11/15 11:58:51;;;;;;;;;;;;;;;20.37;30.47;97028.09;5017298;28;953;-75
2023/11/15 12:01:17;;;;;;;;;;;;;;;20.37;30.69;97027.31;5034819;28;904;-76
2023/11/15 12:03:46;;;;;;;;;;;;;;;20.31;30.34;97032.75;5035363;28;1303;-75
2023/11/15 12:06:12;;;;;;;;;;;;;;;20.90;29.92;97049.97;5035482;28;1019;-75
2023/11/15 12:08:40;;;;;;;;;;;;;;;21.10;29.41;97058.84;5035136;28;1975;-75
2023/11/15 12:11:06;;;;;;;;;;;;;;;21.24;29.26;97046.16;5002052;28;1209;-75
2023/11/15 12:13:47;;;;;;;;;;;;;;;21.08;29.26;97050.81;5018579;28;1004;-75
2023/11/15 12:16:19;;;;;;;;;;;;;;;20.74;29.69;97054.59;5035216;28;1040;-75
2023/11/15 12:18:57;;;;;;;;;;;;;;;20.39;30.48;97061.53;5035341;28;1261;-75
2023/11/15 12:21:23;;;;;;;;;;;;;;;20.72;29.87;97061.94;5015060;28;1209;-76
2023/11/15 12:23:49;;;;;;;;;;;;;;;20.40;30.12;97063.09;4999253;28;1003;-75
2023/11/15 12:26:15;;;;;;;;;;;;;;;20.75;29.65;97067.47;4998991;28;1040;-75
2023/11/15 12:28:40;;;;;;;;;;;;;;;20.71;29.79;97078.09;4998727;28;1971;-75
2023/11/15 12:31:07;;;;;;;;;;;;;;;20.48;30.15;97070.13;4998449;28;1115;-75
2023/11/15 12:33:33;;;;;;;;;;;;;;;20.37;30.31;97069.69;4995534;28;1223;-75
2023/11/15 12:36:00;;;;;;;;;;;;;;;20.55;30.17;97081.13;4995488;28;1122;-75
2023/11/15 12:38:25;;;;;;;;;;;;;;;20.80;29.87;97075.34;4995143;28;968;-75
2023/11/15 12:41:00;;;;;;;;;;;;;;;21.19;29.38;97081.53;4995475;28;1003;-75
2023/11/15 12:43:30;;;;;;;;;;;;;;;21.19;29.30;97104.16;4995276;28;990;-75
2023/11/15 12:45:59;;;;;;;;;;;;;;;20.79;29.75;97095.59;4995324;28;934;-75
2023/11/15 12:48:24;;;;;;;;;;;;;;;20.60;29.71;97111.63;4994841;28;1914;-75
2023/11/15 12:50:58;;;;;;;;;;;;;;;20.70;29.68;97110.47;4995229;28;1114;-76
2023/11/15 12:53:25;;;;;;;;;;;;;;;20.87;29.43;97125.16;5014059;28;1170;-75
2023/11/15 12:55:51;;;;;;;;;;;;;;;20.61;29.99;97124.53;4996663;28;1099;-75
2023/11/15 12:58:17;;;;;;;;;;;;;;;20.38;30.38;97119.28;4975466;28;1118;-75